Time;durP1;ratioP1;P1;durP2;ratioP2;P2;SDS_P1;SDS_P2;PMS_P1;PMS_P2;Temp;Humidity;BMP_temperature;BMP_pressure;BME280_temperature;BME280_humidity;BME280_pressure;Samples;Min_cycle;Max_cycle;Signal;HPM_P1;HPM_P2
2023/10/31 16:31:09;;;;;;;15.10;2.98;;;;;;;19.34;64.95;99456.70;2442871;72;28075;-78
2023/10/31 16:34:12;;;;;;;9.45;2.70;;;;;;;19.28;64.82;99462.91;2381339;73;51379;-78
2023/10/31 16:37:15;;;;;;;11.53;3.42;;;;;;;19.30;64.63;99467.55;2319193;75;51357;-78
2023/10/31 16:40:17;;;;;;;9.30;3.17;;;;;;;19.33;64.45;99475.16;2347122;74;50572;-79
2023/10/31 16:43:19;;;;;;;11.38;2.75;;;;;;;19.39;64.29;99472.65;2345476;74;52484;-78
2023/10/31 16:46:21;;;;;;;11.38;3.15;;;;;;;19.51;64.04;99479.78;2347131;74;51171;-80
2023/10/31 16:49:24;;;;;;;11.22;2.70;;;;;;;19.62;63.58;99484.96;2335307;75;51361;-80
2023/10/31 16:52:26;;;;;;;11.73;3.30;;;;;;;19.73;63.29;99486.14;2309310;76;51271;-81
2023/10/31 16:55:28;;;;;;;9.83;3.12;;;;;;;19.83;62.99;99489.68;2297687;76;51346;-78
2023/10/31 16:58:30;;;;;;;16.67;3.15;;;;;;;19.94;62.76;99492.48;2288300;76;50110;-78
2023/10/31 17:01:32;;;;;;;15.45;3.95;;;;;;;20.05;62.52;99509.73;2319936;75;50123;-79
2023/10/31 17:04:36;;;;;;;16.67;3.22;;;;;;;20.11;62.51;99500.78;2351131;75;50604;-79
2023/10/31 17:07:38;;;;;;;12.85;3.80;;;;;;;20.21;62.20;99509.16;2275988;76;52636;-79
2023/10/31 17:10:40;;;;;;;7.97;3.10;;;;;;;20.25;61.97;99506.05;2275878;76;51351;-79
2023/10/31 17:13:42;;;;;;;13.28;3.72;;;;;;;20.25;61.88;99501.49;2275456;76;51342;-79
2023/10/31 17:16:45;;;;;;;13.95;3.95;;;;;;;20.26;61.79;99510.37;2275479;76;52267;-78
2023/10/31 17:19:48;;;;;;;13.00;3.50;;;;;;;20.25;61.68;99503.36;2293372;76;50363;-78
2023/10/31 17:22:50;;;;;;;18.42;3.80;;;;;;;20.23;61.67;99508.42;2313992;75;51506;-77
2023/10/31 17:25:53;;;;;;;15.80;3.37;;;;;;;20.20;61.70;99507.52;2301011;75;50148;-75
2023/10/31 17:28:56;;;;;;;42.15;5.12;;;;;;;20.25;62.11;99506.05;2345426;75;50584;-76
2023/10/31 17:31:59;;;;;;;70.75;8.90;;;;;;;20.29;62.30;99512.61;2300634;76;49483;-74
2023/10/31 17:35:01;;;;;;;60.10;6.30;;;;;;;20.35;62.22;99514.42;2290464;76;50228;-76
2023/10/31 17:38:04;;;;;;;52.95;7.00;;;;;;;20.38;62.25;99513.44;2314360;76;50294;-75
2023/10/31 17:41:06;;;;;;;54.55;6.58;;;;;;;20.41;62.58;99518.89;2290945;76;51850;-75
2023/10/31 17:44:09;;;;;;;53.52;6.62;;;;;;;20.43;62.69;99529.72;2255846;76;50025;-76
2023/10/31 17:47:11;;;;;;;36.35;6.00;;;;;;;20.47;62.79;99532.77;2315233;76;50319;-74
2023/10/31 17:50:13;;;;;;;51.45;6.22;;;;;;;20.48;62.93;99543.84;2311283;75;51195;-75
2023/10/31 17:53:15;;;;;;;40.50;6.80;;;;;;;20.48;62.94;99547.87;2302862;75;50405;-79
2023/10/31 17:56:18;;;;;;;34.88;5.92;;;;;;;20.48;63.04;99557.27;2278681;75;50118;-78
2023/10/31 17:59:20;;;;;;;42.73;5.97;;;;;;;20.47;63.02;99558.83;2303656;75;50168;-80
2023/10/31 18:02:23;;;;;;;44.45;6.15;;;;;;;20.46;63.15;99555.32;2355579;75;49952;-80
2023/10/31 18:05:25;;;;;;;40.88;6.17;;;;;;;20.46;63.18;99566.07;2323747;75;52224;-83
2023/10/31 18:08:28;;;;;;;41.37;6.55;;;;;;;20.47;63.11;99563.67;2330905;75;50587;-83
2023/10/31 18:11:31;;;;;;;37.60;6.75;;;;;;;20.45;63.14;99567.13;2356016;75;50878;-85
2023/10/31 18:14:33;;;;;;;44.75;6.10;;;;;;;20.46;63.12;99571.45;2303860;75;50627;-82
2023/10/31 18:17:35;;;;;;;35.13;6.22;;;;;;;20.43;63.49;99574.58;2330889;75;50010;-81
2023/10/31 18:20:37;;;;;;;35.03;5.87;;;;;;;20.40;64.03;99575.03;2296412;75;51487;-82
2023/10/31 18:23:39;;;;;;;43.02;7.03;;;;;;;20.43;63.53;99578.09;2355826;75;49965;-83
2023/10/31 18:26:42;;;;;;;34.95;5.70;;;;;;;20.42;63.33;99586.35;2317999;76;49967;-83
2023/10/31 18:29:44;;;;;;;28.17;5.25;;;;;;;20.40;63.14;99587.12;2294956;75;49465;-80
2023/10/31 18:32:46;;;;;;;32.45;5.35;;;;;;;20.40;63.11;99583.09;2302703;75;50650;-82
2023/10/31 18:35:48;;;;;;;24.52;5.60;;;;;;;20.39;63.40;99586.27;2301208;76;50205;-82
2023/10/31 18:38:51;;;;;;;24.10;5.28;;;;;;;20.41;63.40;99592.78;2240797;77;50262;-82
2023/10/31 18:41:53;;;;;;;26.87;5.58;;;;;;;20.42;63.34;99598.45;2278086;77;50099;-83
2023/10/31 18:44:55;;;;;;;29.02;4.92;;;;;;;20.41;63.54;99608.91;2254123;77;51457;-82
2023/10/31 18:47:58;;;;;;;31.65;6.00;;;;;;;20.41;63.62;99616.97;2278248;77;50619;-81
2023/10/31 18:51:01;;;;;;;33.90;6.15;;;;;;;20.40;63.50;99626.08;2221484;77;50887;-82
2023/10/31 18:54:05;;;;;;;30.72;5.03;;;;;;;20.38;63.40;99632.19;2233630;77;52283;-83
2023/10/31 18:57:07;;;;;;;24.98;5.30;;;;;;;20.36;63.15;99634.27;2291401;77;50644;-83
2023/10/31 19:00:10;;;;;;;28.67;6.15;;;;;;;20.32;63.21;99649.16;2258736;77;50656;-83
2023/10/31 19:03:15;;;;;;;27.95;6.12;;;;;;;20.28;63.34;99650.66;2259345;77;50355;-85
2023/10/31 19:06:20;;;;;;;35.55;6.62;;;;;;;20.30;63.37;99656.64;2258911;77;50748;-82
2023/10/31 19:09:22;;;;;;;51.13;8.05;;;;;;;20.33;63.27;99660.23;2221312;77;50945;-80
2023/10/31 19:12:24;;;;;;;46.48;7.65;;;;;;;20.33;63.35;99661.58;2204329;80;51454;-79
2023/10/31 19:15:28;;;;;;;34.08;8.00;;;;;;;20.31;63.44;99671.18;2278383;77;50701;-79
2023/10/31 19:18:30;;;;;;;39.10;7.35;;;;;;;20.30;63.49;99678.14;2239083;77;50800;-79
2023/10/31 19:21:33;;;;;;;40.30;7.90;;;;;;;20.29;63.50;99672.44;2259237;76;50500;-80
